createdAt,value
2016-05-16T00:00:04.365Z,0
2016-05-16T00:02:18.434Z,0
2016-05-16T00:03:04.420Z,0
2016-05-16T00:04:04.298Z,0
2016-05-16T00:05:05.019Z,0
2016-05-16T00:06:04.492Z,0
2016-05-16T00:07:18.681Z,0
2016-05-16T00:08:18.700Z,0
2016-05-16T00:09:04.530Z,0
2016-05-16T00:10:04.408Z,0
2016-05-16T00:11:32.957Z,0
2016-05-16T00:13:04.620Z,0
2016-05-16T00:14:04.653Z,0
2016-05-16T00:15:04.516Z,0
2016-05-16T00:16:04.549Z,0
2016-05-16T00:18:18.913Z,0
2016-05-16T00:19:04.744Z,0
2016-05-16T00:20:05.091Z,0
2016-05-16T00:21:04.782Z,0
2016-05-16T00:22:04.815Z,0
2016-05-16T00:23:04.833Z,0
2016-05-16T00:24:04.852Z,0
2016-05-16T00:25:04.871Z,0
2016-05-16T00:26:04.888Z,0
2016-05-16T00:27:19.094Z,0
2016-05-16T00:28:04.926Z,0
2016-05-16T00:29:04.959Z,0
2016-05-16T00:30:04.837Z,0
2016-05-16T00:31:19.183Z,0
2016-05-16T00:32:04.858Z,0
2016-05-16T00:33:04.892Z,0
2016-05-16T00:34:19.238Z,0
2016-05-16T00:35:05.147Z,0
2016-05-16T00:36:05.103Z,0
2016-05-16T00:37:05.121Z,0
2016-05-16T00:38:05.139Z,0
2016-05-16T00:39:19.345Z,0
2016-05-16T00:40:05.161Z,0
2016-05-16T00:41:05.226Z,0
2016-05-16T00:42:33.603Z,0
2016-05-16T00:43:05.075Z,0
2016-05-16T00:44:05.139Z,0
2016-05-16T00:45:05.127Z,0
2016-05-16T00:46:05.145Z,0
2016-05-16T00:47:05.336Z,0
2016-05-16T00:48:05.354Z,0
2016-05-16T00:49:05.372Z,0
2016-05-16T00:50:19.922Z,0
2016-05-16T00:51:05.408Z,0
2016-05-16T00:52:05.255Z,0
2016-05-16T00:53:05.461Z,0
2016-05-16T00:54:05.324Z,0
2016-05-16T00:55:19.669Z,0
2016-05-16T00:56:19.547Z,0
2016-05-16T00:58:05.553Z,0
2016-05-16T00:59:19.758Z,0
2016-05-16T01:00:19.792Z,0
2016-05-16T01:02:05.470Z,0
2016-05-16T01:03:19.832Z,0
2016-05-16T01:04:05.365Z,0
2016-05-16T01:05:20.228Z,0
2016-05-16T01:06:05.714Z,0
2016-05-16T01:07:19.765Z,0
2016-05-16T01:08:19.939Z,0
2016-05-16T01:09:19.801Z,0
2016-05-16T01:10:05.801Z,0
2016-05-16T01:11:19.994Z,0
2016-05-16T01:12:05.541Z,0
2016-05-16T01:13:05.700Z,0
2016-05-16T01:14:05.875Z,0
2016-05-16T01:15:05.893Z,0
2016-05-16T01:16:05.755Z,0
2016-05-16T01:17:05.929Z,0
2016-05-16T01:18:05.994Z,0
2016-05-16T01:19:05.981Z,0
2016-05-16T01:20:06.503Z,0
2016-05-16T01:21:05.878Z,0
2016-05-16T01:22:06.036Z,0
2016-05-16T01:23:06.070Z,0
2016-05-16T01:24:05.777Z,0
2016-05-16T01:25:06.108Z,0
2016-05-16T01:26:06.125Z,0
2016-05-16T01:27:06.143Z,0
2016-05-16T01:28:06.147Z,0
2016-05-16T01:29:20.215Z,0
2016-05-16T01:30:06.230Z,0
2016-05-16T01:31:06.248Z,0
2016-05-16T01:32:06.251Z,0
2016-05-16T01:33:06.254Z,0
2016-05-16T01:34:06.288Z,0
2016-05-16T01:35:20.855Z,0
2016-05-16T01:36:06.167Z,0
2016-05-16T01:37:20.377Z,0
2016-05-16T01:38:20.551Z,0
2016-05-16T01:39:06.239Z,0
2016-05-16T01:41:06.276Z,0
2016-05-16T01:42:06.450Z,0
2016-05-16T01:43:06.467Z,0
2016-05-16T01:44:06.331Z,0
2016-05-16T01:45:06.348Z,0
2016-05-16T01:46:06.553Z,0
2016-05-16T01:47:06.557Z,0
2016-05-16T01:48:06.419Z,0
2016-05-16T01:49:06.577Z,0
2016-05-16T01:50:06.581Z,0
2016-05-16T01:51:06.630Z,0
2016-05-16T01:53:20.953Z,0
2016-05-16T01:55:06.886Z,0
2016-05-16T01:57:06.812Z,0
2016-05-16T01:58:06.845Z,0
2016-05-16T01:59:07.035Z,0
2016-05-16T02:00:21.272Z,0
2016-05-16T02:01:21.297Z,0
2016-05-16T02:02:21.322Z,0
2016-05-16T02:03:21.346Z,0
2016-05-16T02:04:21.385Z,0
2016-05-16T02:05:07.182Z,0
2016-05-16T02:06:07.252Z,0
2016-05-16T02:07:07.101Z,0
2016-05-16T02:08:07.278Z,0
2016-05-16T02:09:21.349Z,0
2016-05-16T02:11:07.198Z,0
2016-05-16T02:12:07.374Z,0
2016-05-16T02:13:07.393Z,0
2016-05-16T02:14:21.462Z,0
2016-05-16T02:15:07.431Z,0
2016-05-16T02:16:07.465Z,0
2016-05-16T02:17:07.171Z,0
2016-05-16T02:18:07.345Z,0
2016-05-16T02:19:07.537Z,0
2016-05-16T02:20:21.572Z,0
2016-05-16T02:21:07.400Z,0
2016-05-16T02:22:07.435Z,0
2016-05-16T02:23:07.609Z,0
2016-05-16T02:24:07.627Z,0
2016-05-16T02:25:21.820Z,0
2016-05-16T02:27:07.542Z,0
2016-05-16T02:28:07.544Z,0
2016-05-16T02:29:07.719Z,0
2016-05-16T02:30:07.753Z,0
2016-05-16T02:31:21.946Z,0
2016-05-16T02:32:21.980Z,0
2016-05-16T02:33:36.169Z,0
2016-05-16T02:34:07.826Z,0
2016-05-16T02:35:07.892Z,0
2016-05-16T02:36:07.722Z,0
2016-05-16T02:37:07.569Z,0
2016-05-16T02:38:07.915Z,0
2016-05-16T02:39:07.933Z,0
2016-05-16T02:40:22.127Z,0
2016-05-16T02:41:07.986Z,0
2016-05-16T02:42:08.019Z,0
2016-05-16T02:43:08.006Z,0
2016-05-16T02:44:22.059Z,0
2016-05-16T02:45:08.059Z,0
2016-05-16T02:46:08.077Z,0
2016-05-16T02:47:08.095Z,0
2016-05-16T02:48:08.115Z,0
2016-05-16T02:49:36.510Z,0
2016-05-16T02:50:08.166Z,0
2016-05-16T02:51:08.012Z,0
2016-05-16T02:52:22.377Z,0
2016-05-16T02:53:22.396Z,0
2016-05-16T02:54:22.429Z,0
2016-05-16T02:55:22.432Z,0
2016-05-16T02:56:07.964Z,0
2016-05-16T02:57:08.294Z,0
2016-05-16T02:59:22.537Z,0
2016-05-16T03:01:08.367Z,0
2016-05-16T03:02:08.386Z,0
2016-05-16T03:03:22.610Z,0
2016-05-16T03:04:08.453Z,0
2016-05-16T03:05:08.316Z,0
2016-05-16T03:06:08.177Z,0
2016-05-16T03:07:08.336Z,0
2016-05-16T03:11:08.582Z,0
2016-05-16T03:12:36.963Z,0
2016-05-16T03:13:08.619Z,0
2016-05-16T03:14:08.652Z,0
2016-05-16T03:15:22.860Z,0
2016-05-16T03:16:37.067Z,0
2016-05-16T03:17:08.692Z,0
2016-05-16T03:18:22.916Z,0
2016-05-16T03:19:22.934Z,0
2016-05-16T03:20:08.512Z,0
2016-05-16T03:21:08.624Z,5
2016-05-16T03:22:08.815Z,5
2016-05-16T03:23:08.833Z,5
2016-05-16T03:24:23.042Z,5
2016-05-16T03:25:08.557Z,0
2016-05-16T03:26:08.576Z,0
2016-05-16T03:27:08.922Z,0
2016-05-16T03:28:22.958Z,5
2016-05-16T03:29:08.802Z,5
2016-05-16T03:30:23.011Z,5
2016-05-16T03:31:08.995Z,5
2016-05-16T03:32:23.047Z,5
2016-05-16T03:33:09.016Z,5
2016-05-16T03:34:09.081Z,5
2016-05-16T03:35:23.774Z,5
2016-05-16T03:36:09.211Z,10
2016-05-16T03:37:23.311Z,10
2016-05-16T03:38:08.999Z,10
2016-05-16T03:39:09.157Z,10
2016-05-16T03:40:09.175Z,10
2016-05-16T03:41:09.194Z,10
2016-05-16T03:42:09.071Z,10
2016-05-16T03:43:08.933Z,10
2016-05-16T03:44:23.439Z,10
2016-05-16T03:45:09.127Z,10
2016-05-16T03:46:09.301Z,15
2016-05-16T03:47:09.319Z,15
2016-05-16T03:48:23.543Z,15
2016-05-16T03:49:09.371Z,15
2016-05-16T03:50:09.987Z,20
2016-05-16T03:51:09.393Z,30
2016-05-16T03:52:09.426Z,30
2016-05-16T03:53:09.460Z,35
2016-05-16T03:54:23.653Z,30
2016-05-16T03:56:09.500Z,25
2016-05-16T03:57:09.534Z,20
2016-05-16T03:58:23.726Z,20
2016-05-16T03:59:09.414Z,30
2016-05-16T04:00:23.778Z,30
2016-05-16T04:01:09.606Z,30
2016-05-16T04:02:09.625Z,25
2016-05-16T04:03:09.644Z,25
2016-05-16T04:04:23.852Z,30
2016-05-16T04:05:10.355Z,30
2016-05-16T04:06:10.105Z,25
2016-05-16T04:07:09.717Z,25
2016-05-16T04:08:09.751Z,30
2016-05-16T04:09:09.769Z,30
2016-05-16T04:10:24.024Z,30
2016-05-16T04:11:09.821Z,30
2016-05-16T04:12:09.824Z,25
2016-05-16T04:13:09.702Z,30
2016-05-16T04:14:24.066Z,40
2016-05-16T04:15:23.929Z,35
2016-05-16T04:16:09.929Z,35
2016-05-16T04:17:24.121Z,40
2016-05-16T04:18:09.809Z,40
2016-05-16T04:19:09.999Z,40
2016-05-16T04:20:10.251Z,40
2016-05-16T04:21:09.879Z,30
2016-05-16T04:22:10.038Z,30
2016-05-16T04:23:10.088Z,25
2016-05-16T04:24:09.997Z,25
2016-05-16T04:25:24.159Z,25
2016-05-16T04:26:24.301Z,25
2016-05-16T04:27:24.179Z,25
2016-05-16T04:28:10.008Z,25
2016-05-16T04:29:10.198Z,25
2016-05-16T04:30:10.060Z,30
2016-05-16T04:31:10.219Z,35
2016-05-16T04:32:10.237Z,50
2016-05-16T04:33:10.255Z,45
2016-05-16T04:34:10.274Z,55
2016-05-16T04:35:10.605Z,55
2016-05-16T04:36:10.170Z,50
2016-05-16T04:37:24.222Z,45
2016-05-16T04:38:24.397Z,45
2016-05-16T04:39:10.397Z,35
2016-05-16T04:40:10.416Z,35
2016-05-16T04:41:10.293Z,45
2016-05-16T04:42:24.642Z,55
2016-05-16T04:43:10.330Z,60
2016-05-16T04:44:10.504Z,70
2016-05-16T04:45:10.350Z,70
2016-05-16T04:46:10.524Z,55
2016-05-16T04:47:24.577Z,55
2016-05-16T04:48:10.265Z,55
2016-05-16T04:49:24.629Z,55
2016-05-16T04:50:10.488Z,65
2016-05-16T04:51:10.648Z,60
2016-05-16T04:52:10.493Z,70
2016-05-16T04:53:10.513Z,55
2016-05-16T04:54:10.703Z,45
2016-05-16T04:55:10.721Z,50
2016-05-16T04:56:10.739Z,55
2016-05-16T04:57:10.757Z,75
2016-05-16T04:58:10.620Z,60
2016-05-16T04:59:10.637Z,50
2016-05-16T05:00:25.034Z,40
2016-05-16T05:02:10.865Z,45
2016-05-16T05:03:25.073Z,60
2016-05-16T05:04:10.901Z,50
2016-05-16T05:06:10.938Z,40
2016-05-16T05:07:10.816Z,35
2016-05-16T05:08:10.991Z,30
2016-05-16T05:09:11.024Z,35
2016-05-16T05:10:11.027Z,45
2016-05-16T05:12:25.097Z,45
2016-05-16T05:13:11.097Z,50
2016-05-16T05:14:10.960Z,55
2016-05-16T05:15:10.978Z,55
2016-05-16T05:16:11.153Z,60
2016-05-16T05:17:25.360Z,60
2016-05-16T05:18:11.032Z,60
2016-05-16T05:19:25.241Z,60
2016-05-16T05:20:11.648Z,60
2016-05-16T05:22:11.278Z,60
2016-05-16T05:23:11.140Z,60
2016-05-16T05:24:11.314Z,70
2016-05-16T05:26:25.542Z,65
2016-05-16T05:27:11.229Z,65
2016-05-16T05:28:11.403Z,60
2016-05-16T05:29:11.422Z,65
2016-05-16T05:30:11.456Z,60
2016-05-16T05:31:11.473Z,50
2016-05-16T05:32:11.336Z,55
2016-05-16T05:33:11.511Z,65
2016-05-16T05:34:11.529Z,65
2016-05-16T05:35:25.722Z,65
2016-05-16T05:36:11.409Z,70
2016-05-16T05:37:25.775Z,75
2016-05-16T05:38:11.462Z,75
2016-05-16T05:40:11.483Z,55
2016-05-16T05:41:11.516Z,60
2016-05-16T05:42:11.691Z,70
2016-05-16T05:43:25.728Z,70
2016-05-16T05:44:11.416Z,65
2016-05-16T05:45:40.124Z,65
2016-05-16T05:46:11.624Z,65
2016-05-16T05:48:26.006Z,75
2016-05-16T05:49:11.678Z,80
2016-05-16T05:50:26.231Z,85
2016-05-16T05:51:11.871Z,85
2016-05-16T05:52:11.890Z,90
2016-05-16T05:53:11.767Z,85
2016-05-16T05:54:25.976Z,80
2016-05-16T05:55:11.960Z,75
2016-05-16T05:56:11.666Z,75
2016-05-16T05:57:26.187Z,75
2016-05-16T05:58:11.875Z,80
2016-05-16T06:00:12.067Z,85
2016-05-16T06:01:11.945Z,85
2016-05-16T06:02:12.104Z,75
2016-05-16T06:03:12.139Z,85
2016-05-16T06:04:12.156Z,70
2016-05-16T06:05:12.565Z,70
2016-05-16T06:06:26.367Z,70
2016-05-16T06:07:12.055Z,75
2016-05-16T06:08:12.073Z,90
2016-05-16T06:09:12.248Z,80
2016-05-16T06:11:12.160Z,100
2016-05-16T06:12:12.318Z,95
2016-05-16T06:13:12.337Z,110
2016-05-16T06:14:12.355Z,120
2016-05-16T06:15:12.217Z,110
2016-05-16T06:16:12.235Z,105
2016-05-16T06:18:12.131Z,135
2016-05-16T06:20:12.200Z,130
2016-05-16T06:21:12.515Z,130
2016-05-16T06:22:26.707Z,115
2016-05-16T06:23:13.820Z,115
2016-05-16T06:24:12.570Z,100
2016-05-16T06:25:26.778Z,115
2016-05-16T06:26:12.606Z,105
2016-05-16T06:27:26.815Z,105
2016-05-16T06:29:12.676Z,125
2016-05-16T06:30:12.695Z,105
2016-05-16T06:31:12.714Z,95
2016-05-16T06:32:12.731Z,100
2016-05-16T06:33:13.532Z,110
2016-05-16T06:34:12.627Z,110
2016-05-16T06:35:12.803Z,105
2016-05-16T06:36:12.837Z,110
2016-05-16T06:37:12.839Z,115
2016-05-16T06:38:41.078Z,115
2016-05-16T06:39:12.891Z,110
2016-05-16T06:40:12.753Z,120
2016-05-16T06:41:27.119Z,110
2016-05-16T06:42:12.947Z,115
2016-05-16T06:43:13.371Z,120
2016-05-16T06:44:12.842Z,135
2016-05-16T06:45:13.032Z,140
2016-05-16T06:46:12.879Z,120
2016-05-16T06:47:27.088Z,150
2016-05-16T06:48:13.713Z,160
2016-05-16T06:49:27.296Z,155
2016-05-16T06:50:13.186Z,135
2016-05-16T06:51:12.986Z,125
2016-05-16T06:52:13.161Z,115
2016-05-16T06:53:13.726Z,145
2016-05-16T06:56:12.937Z,175
2016-05-16T06:57:13.284Z,185
2016-05-16T06:58:13.146Z,165
2016-05-16T06:59:13.242Z,155
2016-05-16T07:00:13.370Z,165
2016-05-16T07:01:27.531Z,170
2016-05-16T07:02:13.765Z,175
2016-05-16T07:04:41.790Z,215
2016-05-16T07:05:13.446Z,200
2016-05-16T07:06:13.308Z,180
2016-05-16T07:07:13.481Z,200
2016-05-16T07:08:13.360Z,185
2016-05-16T07:09:13.534Z,195
2016-05-16T07:10:27.727Z,190
2016-05-16T07:11:13.430Z,185
2016-05-16T07:12:13.449Z,200
2016-05-16T07:13:13.467Z,180
2016-05-16T07:14:13.486Z,210
2016-05-16T07:15:13.644Z,180
2016-05-16T07:16:13.678Z,175
2016-05-16T07:17:13.713Z,195
2016-05-16T07:19:13.593Z,230
2016-05-16T07:20:28.519Z,240
2016-05-16T07:21:13.801Z,255
2016-05-16T07:22:13.804Z,310
2016-05-16T07:23:13.947Z,315
2016-05-16T07:24:13.732Z,275
2016-05-16T07:25:27.924Z,305
2016-05-16T07:26:13.612Z,320
2016-05-16T07:27:28.117Z,335
2016-05-16T07:28:13.648Z,360
2016-05-16T07:29:13.807Z,345
2016-05-16T07:30:28.172Z,255
2016-05-16T07:31:28.206Z,230
2016-05-16T07:32:14.034Z,270
2016-05-16T07:33:13.989Z,335
2016-05-16T07:34:14.070Z,355
2016-05-16T07:35:14.198Z,330
2016-05-16T07:36:13.982Z,320
2016-05-16T07:37:28.331Z,450
2016-05-16T07:38:14.003Z,545
2016-05-16T07:39:14.193Z,750
2016-05-16T07:40:13.915Z,655
2016-05-16T07:41:14.090Z,830
2016-05-16T07:42:14.091Z,740
2016-05-16T07:43:14.126Z,755
2016-05-16T07:44:28.350Z,550
2016-05-16T07:45:14.334Z,730
2016-05-16T07:46:28.543Z,640
2016-05-16T07:47:28.560Z,705
2016-05-16T07:48:14.295Z,710
2016-05-16T07:50:14.177Z,1025
2016-05-16T07:51:14.319Z,585
2016-05-16T07:53:14.355Z,2030
2016-05-16T07:54:14.546Z,2060
2016-05-16T07:56:14.582Z,755
2016-05-16T07:57:28.634Z,810
2016-05-16T07:58:14.493Z,630
2016-05-16T07:59:14.497Z,2015
2016-05-16T08:00:14.532Z,1875
2016-05-16T08:02:14.724Z,2060
2016-05-16T08:04:14.776Z,560
2016-05-16T08:05:14.825Z,920
2016-05-16T08:06:14.828Z,1880
2016-05-16T08:07:14.862Z,1005
2016-05-16T08:08:14.881Z,1890
2016-05-16T08:09:14.914Z,1970
2016-05-16T08:10:29.108Z,2035
2016-05-16T08:11:14.951Z,2025
2016-05-16T08:12:14.813Z,1880
2016-05-16T08:13:29.193Z,1795
2016-05-16T08:15:15.072Z,1825
2016-05-16T08:16:15.075Z,1825
2016-05-16T08:17:29.142Z,1900
2016-05-16T08:18:14.970Z,1880
2016-05-16T08:19:41.491Z,1915
2016-05-16T08:20:29.822Z,830
2016-05-16T08:21:16.025Z,1955
2016-05-16T08:22:15.074Z,1970
2016-05-16T08:24:15.143Z,425
2016-05-16T08:25:15.317Z,430
2016-05-16T08:26:29.541Z,605
2016-05-16T08:27:15.385Z,420
2016-05-16T08:28:15.403Z,555
2016-05-16T08:29:29.454Z,350
2016-05-16T08:30:15.454Z,380
2016-05-16T08:31:15.348Z,400
2016-05-16T08:32:15.352Z,1670
2016-05-16T08:33:29.732Z,1630
2016-05-16T08:34:15.560Z,1620
2016-05-16T08:35:32.831Z,1575
2016-05-16T08:37:15.646Z,435
2016-05-16T08:39:15.542Z,360
2016-05-16T08:40:29.766Z,335
2016-05-16T08:42:15.628Z,515
2016-05-16T08:43:15.803Z,510
2016-05-16T08:44:15.821Z,1100
2016-05-16T08:45:29.888Z,610
2016-05-16T08:46:15.732Z,545
2016-05-16T08:47:15.922Z,1170
2016-05-16T08:48:15.770Z,410
2016-05-16T08:49:15.944Z,395
2016-05-16T08:50:30.168Z,890
2016-05-16T08:51:16.558Z,430
2016-05-16T08:52:16.030Z,750
2016-05-16T08:53:15.908Z,385
2016-05-16T08:54:16.098Z,390
2016-05-16T08:55:16.116Z,595
2016-05-16T08:56:15.979Z,370
2016-05-16T08:57:16.013Z,365
2016-05-16T08:58:30.221Z,395
2016-05-16T08:59:30.410Z,745
2016-05-16T09:00:44.601Z,395
2016-05-16T09:01:16.257Z,735
2016-05-16T09:02:16.134Z,715
2016-05-16T09:03:16.309Z,700
2016-05-16T09:04:16.360Z,695
2016-05-16T09:05:16.362Z,740
2016-05-16T09:06:16.396Z,675
2016-05-16T09:08:30.639Z,440
2016-05-16T09:09:16.310Z,405
2016-05-16T09:10:16.344Z,335
2016-05-16T09:11:16.222Z,275
2016-05-16T09:12:16.553Z,250
2016-05-16T09:13:16.103Z,235
2016-05-16T09:15:16.483Z,235
2016-05-16T09:16:16.657Z,540
2016-05-16T09:17:16.675Z,585
2016-05-16T09:18:30.743Z,615
2016-05-16T09:19:16.727Z,320
2016-05-16T09:20:16.606Z,300
2016-05-16T09:21:17.499Z,275
2016-05-16T09:22:16.642Z,255
2016-05-16T09:23:16.847Z,260
2016-05-16T09:24:16.397Z,265
2016-05-16T09:25:16.885Z,275
2016-05-16T09:26:16.919Z,300
2016-05-16T09:27:16.937Z,645
2016-05-16T09:28:16.643Z,495
2016-05-16T09:29:31.179Z,630
2016-05-16T09:30:17.023Z,655
2016-05-16T09:31:31.215Z,345
2016-05-16T09:32:31.249Z,270
2016-05-16T09:33:17.093Z,225
2016-05-16T09:34:16.956Z,195
2016-05-16T09:35:17.177Z,170
2016-05-16T09:36:17.712Z,160
2016-05-16T09:37:17.182Z,155
2016-05-16T09:38:17.217Z,175
2016-05-16T09:39:17.234Z,305
2016-05-16T09:40:31.443Z,510
2016-05-16T09:41:17.318Z,515
2016-05-16T09:42:17.195Z,535
2016-05-16T09:43:17.339Z,305
2016-05-16T09:44:17.358Z,400
2016-05-16T09:45:17.407Z,320
2016-05-16T09:46:17.253Z,285
2016-05-16T09:47:17.459Z,265
2016-05-16T09:48:31.652Z,540
2016-05-16T09:49:17.511Z,570
2016-05-16T09:50:31.719Z,620
2016-05-16T09:51:17.735Z,630
2016-05-16T09:52:17.551Z,640
2016-05-16T09:53:17.616Z,630
2016-05-16T09:54:17.666Z,625
2016-05-16T09:55:31.827Z,640
2016-05-16T09:56:17.671Z,640
2016-05-16T09:57:17.689Z,640
2016-05-16T09:58:17.396Z,610
2016-05-16T09:59:31.916Z,580
2016-05-16T10:00:17.619Z,575
2016-05-16T10:01:31.968Z,370
2016-05-16T10:02:17.499Z,345
2016-05-16T10:03:17.846Z,300
2016-05-16T10:04:32.070Z,280
2016-05-16T10:05:17.742Z,275
2016-05-16T10:06:19.042Z,270
2016-05-16T10:07:17.779Z,280
2016-05-16T10:08:17.985Z,300
2016-05-16T10:09:17.690Z,420
2016-05-16T10:10:17.881Z,505
2016-05-16T10:11:18.055Z,555
2016-05-16T10:12:32.107Z,560
2016-05-16T10:13:18.107Z,370
2016-05-16T10:14:19.064Z,360
2016-05-16T10:15:32.459Z,330
2016-05-16T10:16:18.037Z,320
2016-05-16T10:17:18.212Z,305
2016-05-16T10:18:34.092Z,295
2016-05-16T10:19:32.454Z,305
2016-05-16T10:20:33.004Z,320
2016-05-16T10:21:18.161Z,315
2016-05-16T10:22:18.335Z,485
2016-05-16T10:23:18.369Z,385
2016-05-16T10:24:18.403Z,535
2016-05-16T10:25:18.249Z,460
2016-05-16T10:26:18.299Z,565
2016-05-16T10:27:18.457Z,570
2016-05-16T10:28:18.179Z,580
2016-05-16T10:29:32.700Z,525
2016-05-16T10:30:32.563Z,345
2016-05-16T10:31:18.094Z,315
2016-05-16T10:32:18.580Z,260
2016-05-16T10:33:18.630Z,235
2016-05-16T10:34:32.510Z,210
2016-05-16T10:35:33.356Z,195
2016-05-16T10:36:19.543Z,185
2016-05-16T10:37:32.753Z,185
2016-05-16T10:38:32.942Z,195
2016-05-16T10:39:18.770Z,210
2016-05-16T10:40:18.790Z,230
2016-05-16T10:41:18.652Z,250
2016-05-16T10:42:18.685Z,285
2016-05-16T10:43:18.876Z,390
2016-05-16T10:44:18.581Z,440
2016-05-16T10:45:18.912Z,445
2016-05-16T10:47:18.995Z,475
2016-05-16T10:48:18.983Z,355
2016-05-16T10:49:18.861Z,360
2016-05-16T10:50:19.253Z,465
2016-05-16T10:51:19.600Z,330
2016-05-16T10:52:18.790Z,355
2016-05-16T10:53:19.122Z,275
2016-05-16T10:54:19.139Z,245
2016-05-16T10:56:33.382Z,215
2016-05-16T10:57:19.210Z,210
2016-05-16T10:58:19.284Z,210
2016-05-16T10:59:19.350Z,215
2016-05-16T11:00:33.667Z,230
2016-05-16T11:01:19.511Z,245
2016-05-16T11:02:19.263Z,310
2016-05-16T11:03:33.807Z,280
2016-05-16T11:04:19.667Z,265
2016-05-16T11:06:33.929Z,210
2016-05-16T11:07:48.000Z,195
2016-05-16T11:08:19.657Z,190
2016-05-16T11:09:19.837Z,175
2016-05-16T11:10:34.073Z,170
2016-05-16T11:11:19.901Z,175
2016-05-16T11:12:19.942Z,190
2016-05-16T11:13:19.822Z,205
2016-05-16T11:14:19.997Z,220
2016-05-16T11:15:19.878Z,230
2016-05-16T11:16:20.039Z,245
2016-05-16T11:17:20.076Z,325
2016-05-16T11:18:19.938Z,335
2016-05-16T11:19:34.306Z,360
2016-05-16T11:20:20.149Z,365
2016-05-16T11:21:20.558Z,360
2016-05-16T11:23:48.615Z,335
2016-05-16T11:24:34.603Z,345
2016-05-16T11:25:20.134Z,355
2016-05-16T11:26:20.292Z,370
2016-05-16T11:27:34.502Z,365
2016-05-16T11:28:20.345Z,370
2016-05-16T11:29:20.223Z,365
2016-05-16T11:30:34.589Z,365
2016-05-16T11:31:20.417Z,365
2016-05-16T11:33:20.469Z,355
2016-05-16T11:34:20.190Z,410
2016-05-16T11:35:20.380Z,375
2016-05-16T11:36:20.805Z,360
2016-05-16T11:37:34.763Z,360
2016-05-16T11:38:20.435Z,365
2016-05-16T11:40:20.660Z,360
2016-05-16T11:41:34.696Z,365
2016-05-16T11:42:20.696Z,370
2016-05-16T11:43:20.573Z,405
2016-05-16T11:44:20.748Z,405
2016-05-16T11:45:20.610Z,405
2016-05-16T11:46:20.800Z,410
2016-05-16T11:47:34.993Z,410
2016-05-16T11:48:20.852Z,410
2016-05-16T11:50:20.890Z,405
2016-05-16T11:51:21.470Z,405
2016-05-16T11:52:20.645Z,410
2016-05-16T11:53:20.959Z,420
2016-05-16T11:54:20.837Z,440
2016-05-16T11:55:35.203Z,460
2016-05-16T11:56:35.220Z,455
2016-05-16T11:57:20.923Z,395
2016-05-16T11:58:35.116Z,375
2016-05-16T11:59:21.116Z,370
2016-05-16T12:00:20.995Z,365
2016-05-16T12:01:20.856Z,355
2016-05-16T12:02:21.187Z,335
2016-05-16T12:03:35.411Z,350
2016-05-16T12:04:21.239Z,325
2016-05-16T12:06:21.385Z,365
2016-05-16T12:07:21.153Z,360
2016-05-16T12:08:21.344Z,345
2016-05-16T12:09:35.240Z,285
2016-05-16T12:10:35.430Z,255
2016-05-16T12:12:21.292Z,205
2016-05-16T12:13:21.482Z,185
2016-05-16T12:14:21.360Z,170
2016-05-16T12:15:35.553Z,170
2016-05-16T12:16:21.538Z,175
2016-05-16T12:17:35.746Z,185
2016-05-16T12:18:21.590Z,190
2016-05-16T12:19:35.798Z,200
2016-05-16T12:20:21.642Z,205
2016-05-16T12:21:22.565Z,205
2016-05-16T12:22:21.693Z,195
2016-05-16T12:24:21.746Z,165
2016-05-16T12:25:21.749Z,145
2016-05-16T12:26:21.501Z,130
2016-05-16T12:27:21.676Z,125
2016-05-16T12:28:21.867Z,120
2016-05-16T12:29:21.697Z,115
2016-05-16T12:30:21.731Z,105
2016-05-16T12:31:21.765Z,105
2016-05-16T12:32:35.989Z,115
2016-05-16T12:34:21.992Z,135
2016-05-16T12:36:21.903Z,165
2016-05-16T12:37:22.046Z,170
2016-05-16T12:38:22.081Z,170
2016-05-16T12:39:22.115Z,175
2016-05-16T12:41:22.152Z,175
2016-05-16T12:43:21.891Z,175
2016-05-16T12:44:22.065Z,180
2016-05-16T12:45:22.099Z,185
2016-05-16T12:46:22.274Z,200
2016-05-16T12:47:22.136Z,205
2016-05-16T12:48:22.170Z,205
2016-05-16T12:49:22.204Z,210
2016-05-16T12:50:36.568Z,195
2016-05-16T12:51:36.682Z,180
2016-05-16T12:53:22.448Z,145
2016-05-16T12:54:36.502Z,120
2016-05-16T12:55:22.330Z,110
2016-05-16T12:56:22.520Z,100
2016-05-16T12:57:22.553Z,90
2016-05-16T12:58:36.762Z,85
2016-05-16T12:59:22.590Z,85
2016-05-16T13:00:22.468Z,85
2016-05-16T13:02:22.661Z,90
2016-05-16T13:03:22.695Z,95
2016-05-16T13:05:22.731Z,105
2016-05-16T13:06:23.141Z,110
2016-05-16T13:07:22.784Z,115
2016-05-16T13:08:22.661Z,115
2016-05-16T13:09:22.680Z,125
2016-05-16T13:10:22.855Z,130
2016-05-16T13:11:22.888Z,140
2016-05-16T13:13:36.958Z,165
2016-05-16T13:14:36.977Z,175
2016-05-16T13:15:22.821Z,185
2016-05-16T13:16:22.855Z,200
2016-05-16T13:18:22.891Z,235
2016-05-16T13:19:22.910Z,245
2016-05-16T13:20:23.131Z,260
2016-05-16T13:21:23.462Z,270
2016-05-16T13:22:22.840Z,280
2016-05-16T13:23:37.360Z,285
2016-05-16T13:24:23.048Z,280
2016-05-16T13:25:22.910Z,265
2016-05-16T13:26:23.241Z,260
2016-05-16T13:27:23.103Z,255
2016-05-16T13:28:23.293Z,245
2016-05-16T13:29:23.170Z,240
2016-05-16T13:30:37.364Z,240
2016-05-16T13:31:23.051Z,235
2016-05-16T13:32:23.226Z,230
2016-05-16T13:33:23.244Z,230
2016-05-16T13:34:23.278Z,225
2016-05-16T13:35:23.312Z,225
2016-05-16T13:36:23.549Z,225
2016-05-16T13:37:23.192Z,220
2016-05-16T13:38:23.523Z,215
2016-05-16T13:39:37.732Z,210
2016-05-16T13:40:23.419Z,210
2016-05-16T13:41:23.453Z,205
2016-05-16T13:42:23.628Z,205
2016-05-16T13:43:23.647Z,210
2016-05-16T13:45:37.889Z,225
2016-05-16T13:46:23.717Z,225
2016-05-16T13:47:23.610Z,225
2016-05-16T13:48:23.768Z,215
2016-05-16T13:49:23.631Z,205
2016-05-16T13:50:24.213Z,190
2016-05-16T13:51:23.980Z,175
2016-05-16T13:52:23.889Z,165
2016-05-16T13:53:23.892Z,150
2016-05-16T13:54:23.754Z,135
2016-05-16T13:55:23.929Z,130
2016-05-16T13:56:23.806Z,125
2016-05-16T13:57:23.981Z,125
2016-05-16T13:58:24.015Z,125
2016-05-16T13:59:24.034Z,125
2016-05-16T14:00:24.051Z,130
2016-05-16T14:01:23.929Z,130
2016-05-16T14:02:24.119Z,130
2016-05-16T14:03:38.014Z,135
2016-05-16T14:04:38.190Z,135
2016-05-16T14:05:24.190Z,140
2016-05-16T14:06:24.068Z,145
2016-05-16T14:07:24.070Z,145
2016-05-16T14:08:24.245Z,150
2016-05-16T14:09:38.297Z,155
2016-05-16T14:10:38.330Z,160
2016-05-16T14:11:24.190Z,160
2016-05-16T14:12:38.524Z,165
2016-05-16T14:14:38.576Z,170
2016-05-16T14:15:38.594Z,175
2016-05-16T14:16:24.438Z,175
2016-05-16T14:18:24.022Z,175
2016-05-16T14:19:24.383Z,175
2016-05-16T14:20:24.386Z,180
2016-05-16T14:21:38.626Z,190
2016-05-16T14:22:38.644Z,200
2016-05-16T14:23:24.301Z,210
2016-05-16T14:24:24.631Z,215
2016-05-16T14:25:38.684Z,210
2016-05-16T14:26:38.701Z,230
2016-05-16T14:27:24.545Z,250
2016-05-16T14:28:38.910Z,255
2016-05-16T14:29:24.754Z,265
2016-05-16T14:30:24.788Z,260
2016-05-16T14:31:24.634Z,260
2016-05-16T14:32:24.668Z,255
2016-05-16T14:33:38.878Z,260
2016-05-16T14:35:39.086Z,250
2016-05-16T14:36:39.103Z,245
2016-05-16T14:37:24.791Z,245
2016-05-16T14:38:24.966Z,245
2016-05-16T14:39:25.000Z,245
2016-05-16T14:40:24.705Z,240
2016-05-16T14:41:25.037Z,240
2016-05-16T14:42:39.089Z,225
2016-05-16T14:43:24.933Z,230
2016-05-16T14:44:25.107Z,225
2016-05-16T14:45:39.315Z,230
2016-05-16T14:46:25.159Z,215
2016-05-16T14:47:39.227Z,190
2016-05-16T14:48:25.211Z,200
2016-05-16T14:49:39.405Z,190
2016-05-16T14:50:25.249Z,160
2016-05-16T14:51:25.001Z,160
2016-05-16T14:52:25.301Z,160
2016-05-16T14:53:25.319Z,160
2016-05-16T14:54:25.368Z,155
2016-05-16T14:55:25.371Z,155
2016-05-16T14:56:39.595Z,145
2016-05-16T14:57:39.613Z,140
2016-05-16T14:58:25.285Z,135
2016-05-16T14:59:53.837Z,135
2016-05-16T15:01:39.405Z,135
2016-05-16T15:02:25.545Z,145
2016-05-16T15:03:25.565Z,160
2016-05-16T15:04:39.773Z,170
2016-05-16T15:05:39.666Z,130
2016-05-16T15:06:25.916Z,135
2016-05-16T15:07:25.670Z,130
2016-05-16T15:08:25.531Z,140
2016-05-16T15:09:25.550Z,150
2016-05-16T15:11:25.758Z,240
2016-05-16T15:12:25.776Z,185
2016-05-16T15:13:25.810Z,185
2016-05-16T15:14:25.688Z,205